createdAt,value
2022-07-28T00:02:04.646Z,17.36
2022-07-28T00:04:32.910Z,17.36
2022-07-28T00:06:59.621Z,17.35
2022-07-28T00:09:28.312Z,17.35
2022-07-28T00:11:55.201Z,17.32
2022-07-28T00:14:22.625Z,17.29
2022-07-28T00:16:49.602Z,17.26
2022-07-28T00:19:16.600Z,17.26
2022-07-28T00:21:43.475Z,17.22
2022-07-28T00:24:10.520Z,17.19
2022-07-28T00:26:37.477Z,17.14
2022-07-28T00:29:05.306Z,17.10
2022-07-28T00:31:32.421Z,17.06
2022-07-28T00:33:59.277Z,17.03
2022-07-28T00:36:25.877Z,16.99
2022-07-28T00:38:52.680Z,16.99
2022-07-28T00:41:20.676Z,17.00
2022-07-28T00:43:50.702Z,16.99
2022-07-28T00:46:19.928Z,16.97
2022-07-28T00:48:54.181Z,16.96
2022-07-28T00:51:23.458Z,16.95
2022-07-28T00:53:51.141Z,16.92
2022-07-28T00:56:18.982Z,16.91
2022-07-28T00:58:46.555Z,16.90
2022-07-28T01:01:15.330Z,16.89
2022-07-28T01:03:44.727Z,16.89
2022-07-28T01:06:23.171Z,16.90
2022-07-28T01:08:56.583Z,16.89
2022-07-28T01:11:32.162Z,16.90
2022-07-28T01:14:47.772Z,16.90
2022-07-28T01:17:25.163Z,16.91
2022-07-28T01:19:54.765Z,16.93
2022-07-28T01:22:25.496Z,16.92
2022-07-28T01:25:06.146Z,16.88
2022-07-28T01:27:50.973Z,16.86
2022-07-28T01:30:41.359Z,16.86
2022-07-28T01:33:16.411Z,16.83
2022-07-28T01:35:59.051Z,16.80
2022-07-28T01:38:27.467Z,16.78
2022-07-28T01:40:56.776Z,16.80
2022-07-28T01:43:26.418Z,16.87
2022-07-28T01:45:55.690Z,16.89
2022-07-28T01:48:24.950Z,16.95
2022-07-28T01:50:54.417Z,16.94
2022-07-28T01:53:22.117Z,16.92
2022-07-28T01:55:50.756Z,16.88
2022-07-28T01:58:20.374Z,16.86
2022-07-28T02:00:50.238Z,16.83
2022-07-28T02:03:19.685Z,16.80
2022-07-28T02:05:49.266Z,16.78
2022-07-28T02:08:19.456Z,16.75
2022-07-28T02:10:48.680Z,16.72
2022-07-28T02:13:15.542Z,16.68
2022-07-28T02:15:42.768Z,16.64
2022-07-28T02:18:11.055Z,16.62
2022-07-28T02:20:40.496Z,16.60
2022-07-28T02:23:08.493Z,16.60
2022-07-28T02:25:38.063Z,16.61
2022-07-28T02:28:08.111Z,16.61
2022-07-28T02:30:41.107Z,16.59
2022-07-28T02:33:29.573Z,16.59
2022-07-28T02:36:25.787Z,16.59
2022-07-28T02:38:56.306Z,16.58
2022-07-28T02:41:27.265Z,16.56
2022-07-28T02:43:55.544Z,16.54
2022-07-28T02:46:27.750Z,16.49
2022-07-28T02:49:04.961Z,16.46
2022-07-28T02:51:34.825Z,16.41
2022-07-28T02:54:03.087Z,16.35
2022-07-28T02:56:31.282Z,16.29
2022-07-28T02:58:59.048Z,16.24
2022-07-28T03:01:26.601Z,16.17
2022-07-28T03:03:55.373Z,16.09
2022-07-28T03:06:28.351Z,16.00
2022-07-28T03:08:56.787Z,15.93
2022-07-28T03:11:23.834Z,15.89
2022-07-28T03:13:50.476Z,15.84
2022-07-28T03:16:17.687Z,15.82
2022-07-28T03:18:44.476Z,15.81
2022-07-28T03:21:11.119Z,15.83
2022-07-28T03:23:43.536Z,15.82
2022-07-28T03:26:21.564Z,15.81
2022-07-28T03:28:49.882Z,15.82
2022-07-28T03:31:20.523Z,15.81
2022-07-28T03:33:48.724Z,15.81
2022-07-28T03:36:21.938Z,15.83
2022-07-28T03:39:17.636Z,15.83
2022-07-28T03:41:46.193Z,15.84
2022-07-28T03:44:14.690Z,15.82
2022-07-28T03:46:54.262Z,15.81
2022-07-28T03:49:20.936Z,15.81
2022-07-28T03:51:48.174Z,15.81
2022-07-28T03:54:15.261Z,15.82
2022-07-28T03:56:42.144Z,15.86
2022-07-28T03:59:08.681Z,15.88
2022-07-28T04:01:35.345Z,15.89
2022-07-28T04:04:02.216Z,15.92
2022-07-28T04:06:28.899Z,15.95
2022-07-28T04:08:55.529Z,15.97
2022-07-28T04:11:23.805Z,16.01
2022-07-28T04:13:50.423Z,16.05
2022-07-28T04:16:17.065Z,16.09
2022-07-28T04:18:43.804Z,16.16
2022-07-28T04:21:10.496Z,16.23
2022-07-28T04:23:37.264Z,16.32
2022-07-28T04:26:04.141Z,16.40
2022-07-28T04:28:31.287Z,16.51
2022-07-28T04:30:58.250Z,16.61
2022-07-28T04:33:25.160Z,16.72
2022-07-28T04:35:52.910Z,16.86
2022-07-28T04:38:19.942Z,17.01
2022-07-28T04:40:47.881Z,17.18
2022-07-28T04:43:14.495Z,17.35
2022-07-28T04:45:53.443Z,17.64
2022-07-28T04:48:22.449Z,18.01
2022-07-28T04:50:49.163Z,18.51
2022-07-28T04:53:15.730Z,19.01
2022-07-28T04:55:42.593Z,19.54
2022-07-28T04:58:09.458Z,19.91
2022-07-28T05:00:36.203Z,20.24
2022-07-28T05:03:02.841Z,20.73
2022-07-28T05:05:29.622Z,21.10
2022-07-28T05:07:56.150Z,20.97
2022-07-28T05:10:22.731Z,20.60
2022-07-28T05:12:49.414Z,20.31
2022-07-28T05:15:16.089Z,20.14
2022-07-28T05:17:42.636Z,20.09
2022-07-28T05:20:10.634Z,20.03
2022-07-28T05:22:44.316Z,19.93
2022-07-28T05:25:18.849Z,19.86
2022-07-28T05:27:46.812Z,19.76
2022-07-28T05:30:14.227Z,19.69
2022-07-28T05:32:41.658Z,19.61
2022-07-28T05:35:08.812Z,19.63
2022-07-28T05:37:36.274Z,19.80
2022-07-28T05:40:11.723Z,20.07
2022-07-28T05:42:38.368Z,20.28
2022-07-28T05:45:16.014Z,20.23
2022-07-28T05:47:53.160Z,20.29
2022-07-28T05:50:23.451Z,20.05
2022-07-28T05:52:50.215Z,19.90
2022-07-28T05:55:17.261Z,19.89
2022-07-28T05:57:44.282Z,19.94
2022-07-28T06:00:14.205Z,19.85
2022-07-28T06:02:42.389Z,19.72
2022-07-28T06:05:09.719Z,19.63
2022-07-28T06:07:42.390Z,19.43
2022-07-28T06:10:12.393Z,19.22
2022-07-28T06:12:43.485Z,19.23
2022-07-28T06:15:19.022Z,19.38
2022-07-28T06:17:45.792Z,19.29
2022-07-28T06:20:13.536Z,19.24
2022-07-28T06:22:43.277Z,19.22
2022-07-28T06:25:14.026Z,19.24
2022-07-28T06:27:40.846Z,19.33
2022-07-28T06:30:08.559Z,19.43
2022-07-28T06:32:35.176Z,19.70
2022-07-28T06:35:01.821Z,20.00
2022-07-28T06:37:28.663Z,20.44
2022-07-28T06:39:55.221Z,20.60
2022-07-28T06:42:21.848Z,20.46
2022-07-28T06:44:58.768Z,20.44
2022-07-28T06:47:27.139Z,20.44
2022-07-28T06:49:53.852Z,20.30
2022-07-28T06:52:20.495Z,20.23
2022-07-28T06:54:47.762Z,20.10
2022-07-28T06:57:15.677Z,20.05
2022-07-28T06:59:43.912Z,20.18
2022-07-28T07:02:10.755Z,20.47
2022-07-28T07:04:37.505Z,20.73
2022-07-28T07:07:14.810Z,20.95
2022-07-28T07:09:44.518Z,20.88
2022-07-28T07:12:11.259Z,21.19
2022-07-28T07:14:37.908Z,21.46
2022-07-28T07:17:05.150Z,21.52
2022-07-28T07:19:32.201Z,21.48
2022-07-28T07:21:58.934Z,21.58
2022-07-28T07:24:25.524Z,21.93
2022-07-28T07:26:52.434Z,21.95
2022-07-28T07:29:19.002Z,22.07
2022-07-28T07:31:45.597Z,22.06
2022-07-28T07:34:12.621Z,21.87
2022-07-28T07:36:39.538Z,21.72
2022-07-28T07:39:06.667Z,21.49
2022-07-28T07:41:33.414Z,21.37
2022-07-28T07:43:59.970Z,21.31
2022-07-28T07:46:26.577Z,21.24
2022-07-28T07:48:53.265Z,21.17
2022-07-28T07:51:19.979Z,21.12
2022-07-28T07:53:46.621Z,21.20
2022-07-28T07:56:13.267Z,21.11
2022-07-28T07:58:40.011Z,21.12
2022-07-28T08:01:06.862Z,21.24
2022-07-28T08:03:33.502Z,21.40
2022-07-28T08:06:02.263Z,21.72
2022-07-28T08:08:28.861Z,22.17
2022-07-28T08:10:55.645Z,22.55
2022-07-28T08:13:22.149Z,22.58
2022-07-28T08:15:49.123Z,22.82
2022-07-28T08:18:15.820Z,22.82
2022-07-28T08:20:42.376Z,22.80
2022-07-28T08:23:09.409Z,22.79
2022-07-28T08:25:37.184Z,22.66
2022-07-28T08:28:04.537Z,22.83
2022-07-28T08:30:32.940Z,23.18
2022-07-28T08:33:00.495Z,23.26
2022-07-28T08:35:35.591Z,23.14
2022-07-28T08:38:06.153Z,23.04
2022-07-28T08:40:32.814Z,22.80
2022-07-28T08:43:14.600Z,22.99
2022-07-28T08:45:43.633Z,23.00
2022-07-28T08:48:11.562Z,22.96
2022-07-28T08:50:39.157Z,23.22
2022-07-28T08:53:07.845Z,23.46
2022-07-28T08:55:35.688Z,24.11
2022-07-28T08:58:03.796Z,24.69
2022-07-28T09:00:30.918Z,25.02
2022-07-28T09:02:58.534Z,25.30
2022-07-28T09:05:25.366Z,25.06
2022-07-28T09:07:54.913Z,24.99
2022-07-28T09:10:22.101Z,24.71
2022-07-28T09:12:48.716Z,24.35
2022-07-28T09:15:15.510Z,24.42
2022-07-28T09:17:42.827Z,24.26
2022-07-28T09:20:11.763Z,24.58
2022-07-28T09:22:55.569Z,24.48
2022-07-28T09:25:22.350Z,24.22
2022-07-28T09:27:48.988Z,24.16
2022-07-28T09:30:15.520Z,24.09
2022-07-28T09:32:42.188Z,23.71
2022-07-28T09:35:19.949Z,23.50
2022-07-28T09:37:46.699Z,23.54
2022-07-28T09:40:14.057Z,23.39
2022-07-28T09:42:49.598Z,23.34
2022-07-28T09:45:24.901Z,23.34
2022-07-28T09:48:13.408Z,23.23
2022-07-28T09:50:41.844Z,23.51
2022-07-28T09:53:27.362Z,23.93
2022-07-28T09:55:57.956Z,24.26
2022-07-28T09:58:25.468Z,24.15
2022-07-28T10:01:13.484Z,24.06
2022-07-28T10:03:42.457Z,24.00
2022-07-28T10:06:15.503Z,23.76
2022-07-28T10:08:48.050Z,24.22
2022-07-28T10:11:17.743Z,24.62
2022-07-28T10:13:58.654Z,24.62
2022-07-28T10:16:27.872Z,24.20
2022-07-28T10:18:56.150Z,23.65
2022-07-28T10:21:24.571Z,23.33
2022-07-28T10:23:57.021Z,23.44
2022-07-28T10:26:29.008Z,23.74
2022-07-28T10:28:56.830Z,24.40
2022-07-28T10:31:48.999Z,24.86
2022-07-28T10:34:43.801Z,25.25
2022-07-28T10:37:17.448Z,25.77
2022-07-28T10:39:49.861Z,25.62
2022-07-28T10:42:16.934Z,25.47
2022-07-28T10:44:44.397Z,25.24
2022-07-28T10:47:18.630Z,24.94
2022-07-28T10:49:48.543Z,24.61
2022-07-28T10:52:37.724Z,24.32
2022-07-28T10:55:23.541Z,24.23
2022-07-28T10:58:17.370Z,24.16
2022-07-28T11:00:59.990Z,24.30
2022-07-28T11:03:40.761Z,24.33
2022-07-28T11:06:26.590Z,24.27
2022-07-28T11:08:55.055Z,24.37
2022-07-28T11:11:50.123Z,24.59
2022-07-28T11:14:22.682Z,24.77
2022-07-28T11:17:11.496Z,24.88
2022-07-28T11:20:00.885Z,25.00
2022-07-28T11:22:32.095Z,24.97
2022-07-28T11:24:59.617Z,25.07
2022-07-28T11:27:45.124Z,25.55
2022-07-28T11:30:27.798Z,26.02
2022-07-28T11:32:54.625Z,26.38
2022-07-28T11:35:22.187Z,26.95
2022-07-28T11:38:01.242Z,27.30
2022-07-28T11:40:45.489Z,27.35
2022-07-28T11:43:22.396Z,27.46
2022-07-28T11:46:13.712Z,27.13
2022-07-28T11:48:44.860Z,26.86
2022-07-28T11:51:13.211Z,26.72
2022-07-28T11:53:43.773Z,26.49
2022-07-28T11:56:12.693Z,26.61
2022-07-28T11:58:40.911Z,26.38
2022-07-28T12:01:20.881Z,26.25
2022-07-28T12:03:56.023Z,26.18
2022-07-28T12:06:42.634Z,26.24
2022-07-28T12:09:11.101Z,26.59
2022-07-28T12:11:40.095Z,26.52
2022-07-28T12:14:09.478Z,26.48
2022-07-28T12:16:39.720Z,26.10
2022-07-28T12:19:08.517Z,25.85
2022-07-28T12:21:36.523Z,25.62
2022-07-28T12:24:04.556Z,25.32
2022-07-28T12:26:34.501Z,25.30
2022-07-28T12:29:12.013Z,25.67
2022-07-28T12:31:39.188Z,26.08
2022-07-28T12:34:07.313Z,26.22
2022-07-28T12:36:34.651Z,26.21
2022-07-28T12:39:01.777Z,26.40
2022-07-28T12:41:33.156Z,26.97
2022-07-28T12:44:00.638Z,27.20
2022-07-28T12:46:29.835Z,26.90
2022-07-28T12:49:01.022Z,26.60
2022-07-28T12:51:43.258Z,26.42
2022-07-28T12:54:13.055Z,26.34
2022-07-28T12:56:50.922Z,26.30
2022-07-28T12:59:18.157Z,26.29
2022-07-28T13:01:52.718Z,26.09
2022-07-28T13:04:38.420Z,26.05
2022-07-28T13:07:06.278Z,26.13
2022-07-28T13:09:35.491Z,26.21
2022-07-28T13:12:03.351Z,26.45
2022-07-28T13:14:43.730Z,26.59
2022-07-28T13:17:10.965Z,27.04
2022-07-28T13:19:38.101Z,27.41
2022-07-28T13:22:08.879Z,27.92
2022-07-28T13:24:36.626Z,28.50
2022-07-28T13:27:04.189Z,29.09
2022-07-28T13:29:34.202Z,29.64
2022-07-28T13:32:01.021Z,29.35
2022-07-28T13:34:27.736Z,28.26
2022-07-28T13:36:54.294Z,27.32
2022-07-28T13:39:21.194Z,26.66
2022-07-28T13:41:56.421Z,26.26
2022-07-28T13:44:25.667Z,26.07
2022-07-28T13:46:52.283Z,26.14
2022-07-28T13:49:21.594Z,26.80
2022-07-28T13:51:51.283Z,28.21
2022-07-28T13:54:19.379Z,29.01
2022-07-28T13:57:06.433Z,29.84
2022-07-28T13:59:35.450Z,30.45
2022-07-28T14:02:05.345Z,29.88
2022-07-28T14:04:32.462Z,30.02
2022-07-28T14:06:59.445Z,30.29
2022-07-28T14:09:26.166Z,30.66
2022-07-28T14:11:53.552Z,31.30
2022-07-28T14:14:23.806Z,31.65
2022-07-28T14:16:55.179Z,32.01
2022-07-28T14:19:38.933Z,32.12
2022-07-28T14:22:13.642Z,31.84
2022-07-28T14:24:43.909Z,31.13
2022-07-28T14:27:10.649Z,29.80
2022-07-28T14:29:38.210Z,28.74
2022-07-28T14:32:05.609Z,27.97
2022-07-28T14:34:32.452Z,27.26
2022-07-28T14:37:04.859Z,26.76
2022-07-28T14:39:35.430Z,26.92
2022-07-28T14:42:02.277Z,27.42
2022-07-28T14:44:28.817Z,28.25
2022-07-28T14:46:55.597Z,29.11
2022-07-28T14:49:22.140Z,29.51
2022-07-28T14:51:50.580Z,29.06
2022-07-28T14:54:17.396Z,29.05
2022-07-28T14:56:44.538Z,29.37
2022-07-28T14:59:11.121Z,28.84
2022-07-28T15:01:37.866Z,28.25
2022-07-28T15:04:05.416Z,27.94
2022-07-28T15:06:32.380Z,27.79
2022-07-28T15:08:58.946Z,27.73
2022-07-28T15:11:26.276Z,27.60
2022-07-28T15:13:53.022Z,27.21
2022-07-28T15:16:19.680Z,26.94
2022-07-28T15:18:46.519Z,26.74
2022-07-28T15:21:16.771Z,26.27
2022-07-28T15:23:44.405Z,26.00
2022-07-28T15:26:11.635Z,25.90
2022-07-28T15:28:38.717Z,25.83
2022-07-28T15:31:08.434Z,25.79
2022-07-28T15:33:36.099Z,25.73
2022-07-28T15:36:02.678Z,25.67
2022-07-28T15:38:29.703Z,25.65
2022-07-28T15:40:58.931Z,25.65
2022-07-28T15:43:25.821Z,25.91
2022-07-28T15:45:55.291Z,26.71
2022-07-28T15:48:22.496Z,28.06
2022-07-28T15:50:49.768Z,29.28
2022-07-28T15:53:17.325Z,30.28
2022-07-28T15:55:48.944Z,31.05
2022-07-28T15:58:18.189Z,31.63
2022-07-28T16:00:45.283Z,31.75
2022-07-28T16:03:12.300Z,32.05
2022-07-28T16:05:39.558Z,32.33
2022-07-28T16:08:06.667Z,32.39
2022-07-28T16:10:33.354Z,32.51
2022-07-28T16:13:00.126Z,32.79
2022-07-28T16:15:26.739Z,32.92
2022-07-28T16:17:54.417Z,33.10
2022-07-28T16:20:21.998Z,33.22
2022-07-28T16:22:48.894Z,33.25
2022-07-28T16:25:16.320Z,33.17
2022-07-28T16:27:44.377Z,33.21
2022-07-28T16:30:11.722Z,32.76
2022-07-28T16:32:39.368Z,32.02
2022-07-28T16:35:07.327Z,31.50
2022-07-28T16:37:36.895Z,30.14
2022-07-28T16:40:04.219Z,29.54
2022-07-28T16:42:30.900Z,28.91
2022-07-28T16:44:57.658Z,28.23
2022-07-28T16:47:24.677Z,27.46
2022-07-28T16:49:51.353Z,26.81
2022-07-28T16:52:18.254Z,26.29
2022-07-28T16:54:45.017Z,25.90
2022-07-28T16:57:13.945Z,25.80
2022-07-28T16:59:48.565Z,26.48
2022-07-28T17:02:17.106Z,27.30
2022-07-28T17:04:43.704Z,27.93
2022-07-28T17:07:10.462Z,28.26
2022-07-28T17:09:37.270Z,28.12
2022-07-28T17:12:04.373Z,27.87
2022-07-28T17:14:31.211Z,27.79
2022-07-28T17:16:58.002Z,28.09
2022-07-28T17:19:24.812Z,28.12
2022-07-28T17:21:51.365Z,27.45
2022-07-28T17:24:18.712Z,26.74
2022-07-28T17:27:35.075Z,26.58
2022-07-28T17:29:32.482Z,26.91
2022-07-28T17:31:59.061Z,26.75
2022-07-28T17:34:25.608Z,26.06
2022-07-28T17:36:52.323Z,25.41
2022-07-28T17:39:18.884Z,24.88
2022-07-28T17:41:47.902Z,24.46
2022-07-28T17:44:14.821Z,24.14
2022-07-28T17:46:42.733Z,23.87
2022-07-28T17:49:09.657Z,23.63
2022-07-28T17:51:36.427Z,23.47
2022-07-28T17:54:03.553Z,23.50
2022-07-28T17:56:31.572Z,23.41
2022-07-28T17:58:59.415Z,23.51
2022-07-28T18:01:26.170Z,23.60
2022-07-28T18:03:58.444Z,23.59
2022-07-28T18:06:32.526Z,23.43
2022-07-28T18:09:06.816Z,23.09
2022-07-28T18:11:55.625Z,22.72
2022-07-28T18:14:26.464Z,22.35
2022-07-28T18:16:53.119Z,22.08
2022-07-28T18:19:19.683Z,21.82
2022-07-28T18:21:46.397Z,21.57
2022-07-28T18:24:13.501Z,21.33
2022-07-28T18:26:40.498Z,21.12
2022-07-28T18:29:07.352Z,20.91
2022-07-28T18:31:34.097Z,20.70
2022-07-28T18:34:00.940Z,20.51
2022-07-28T18:36:27.584Z,20.34
2022-07-28T18:38:54.274Z,20.17
2022-07-28T18:41:20.853Z,20.02
2022-07-28T18:43:47.441Z,19.89
2022-07-28T18:46:14.133Z,19.76
2022-07-28T18:48:41.182Z,19.64
2022-07-28T18:51:08.059Z,19.54
2022-07-28T18:53:36.179Z,19.44
2022-07-28T18:56:02.713Z,19.34
2022-07-28T18:58:29.396Z,19.25
2022-07-28T19:00:56.162Z,19.18
2022-07-28T19:03:22.803Z,19.10
2022-07-28T19:05:49.378Z,19.03
2022-07-28T19:08:16.269Z,18.97
2022-07-28T19:10:44.468Z,18.92
2022-07-28T19:13:13.237Z,18.88
2022-07-28T19:15:41.831Z,18.84
2022-07-28T19:18:11.711Z,18.81
2022-07-28T19:20:44.263Z,18.78
2022-07-28T19:23:11.018Z,18.73
2022-07-28T19:25:39.176Z,18.70
2022-07-28T19:28:06.843Z,18.68
2022-07-28T19:30:34.156Z,18.67
2022-07-28T19:33:00.933Z,18.65
2022-07-28T19:35:27.900Z,18.64
2022-07-28T19:37:54.618Z,18.60
2022-07-28T19:40:21.503Z,18.55
2022-07-28T19:42:48.313Z,18.51
2022-07-28T19:45:15.432Z,18.49
2022-07-28T19:47:42.262Z,18.51
2022-07-28T19:50:09.659Z,18.50
2022-07-28T19:52:37.589Z,18.48
2022-07-28T19:55:06.157Z,18.43
2022-07-28T19:57:33.327Z,18.37
2022-07-28T20:00:00.991Z,18.32
2022-07-28T20:02:28.704Z,18.25
2022-07-28T20:04:55.644Z,18.22
2022-07-28T20:07:22.370Z,18.22
2022-07-28T20:09:48.970Z,18.23
2022-07-28T20:12:18.109Z,18.25
2022-07-28T20:14:44.749Z,18.23
2022-07-28T20:17:29.544Z,18.22
2022-07-28T20:19:59.376Z,18.21
2022-07-28T20:22:25.912Z,18.19
2022-07-28T20:24:52.526Z,18.13
2022-07-28T20:27:19.062Z,18.08
2022-07-28T20:29:45.703Z,18.01
2022-07-28T20:32:12.243Z,17.92
2022-07-28T20:34:38.819Z,17.83
2022-07-28T20:37:06.103Z,17.76
2022-07-28T20:39:44.407Z,17.71
2022-07-28T20:42:12.274Z,17.64
2022-07-28T20:44:39.090Z,17.58
2022-07-28T20:47:05.841Z,17.52
2022-07-28T20:49:32.711Z,17.45
2022-07-28T20:51:59.628Z,17.38
2022-07-28T20:54:26.518Z,17.33
2022-07-28T20:56:53.513Z,17.26
2022-07-28T20:59:20.375Z,17.17
2022-07-28T21:01:47.627Z,17.07
2022-07-28T21:04:15.163Z,16.97
2022-07-28T21:06:50.849Z,16.88
2022-07-28T21:09:18.613Z,16.80
2022-07-28T21:11:45.166Z,16.76
2022-07-28T21:14:11.901Z,16.72
2022-07-28T21:16:38.702Z,16.69
2022-07-28T21:19:05.417Z,16.66
2022-07-28T21:21:32.236Z,16.61
2022-07-28T21:23:59.083Z,16.56
2022-07-28T21:26:25.723Z,16.48
2022-07-28T21:28:52.472Z,16.42
2022-07-28T21:31:19.244Z,16.33
2022-07-28T21:33:45.819Z,16.27
2022-07-28T21:36:12.603Z,16.24
2022-07-28T21:38:39.858Z,16.20
2022-07-28T21:41:06.602Z,16.15
2022-07-28T21:43:33.963Z,16.10
2022-07-28T21:46:01.796Z,16.10
2022-07-28T21:48:30.743Z,16.06
2022-07-28T21:50:58.192Z,16.01
2022-07-28T21:53:25.453Z,15.96
2022-07-28T21:55:52.115Z,15.86
2022-07-28T21:58:18.676Z,15.79
2022-07-28T22:00:45.649Z,15.71
2022-07-28T22:03:12.181Z,15.64
2022-07-28T22:05:38.756Z,15.60
2022-07-28T22:08:05.751Z,15.59
2022-07-28T22:10:32.316Z,15.61
2022-07-28T22:12:58.879Z,15.64
2022-07-28T22:15:25.664Z,15.67
2022-07-28T22:17:52.480Z,15.70
2022-07-28T22:20:19.233Z,15.69
2022-07-28T22:22:45.986Z,15.65
2022-07-28T22:25:12.572Z,15.61
2022-07-28T22:27:39.096Z,15.57
2022-07-28T22:30:06.746Z,15.52
2022-07-28T22:32:33.343Z,15.48
2022-07-28T22:34:59.919Z,15.45
2022-07-28T22:37:26.993Z,15.43
2022-07-28T22:39:53.650Z,15.41
2022-07-28T22:42:20.465Z,15.39
2022-07-28T22:44:47.142Z,15.37
2022-07-28T22:47:14.155Z,15.35
2022-07-28T22:49:40.882Z,15.31
2022-07-28T22:52:07.466Z,15.26
2022-07-28T22:54:37.980Z,15.21
2022-07-28T22:57:04.622Z,15.18
2022-07-28T22:59:33.258Z,15.15
2022-07-28T23:02:05.388Z,15.10
2022-07-28T23:04:32.065Z,15.04
2022-07-28T23:06:58.765Z,14.98
2022-07-28T23:09:27.387Z,14.92
2022-07-28T23:11:55.728Z,14.86
2022-07-28T23:14:23.405Z,14.81
2022-07-28T23:16:50.253Z,14.77
2022-07-28T23:19:17.835Z,14.72
2022-07-28T23:21:44.572Z,14.68
2022-07-28T23:24:11.829Z,14.65
2022-07-28T23:26:38.714Z,14.62
2022-07-28T23:29:05.874Z,14.58
2022-07-28T23:31:32.630Z,14.55
2022-07-28T23:33:59.408Z,14.51
2022-07-28T23:36:27.730Z,14.46
2022-07-28T23:38:58.978Z,14.41
2022-07-28T23:41:27.066Z,14.39
2022-07-28T23:43:53.842Z,14.36
2022-07-28T23:46:21.279Z,14.34
2022-07-28T23:48:49.071Z,14.31
2022-07-28T23:51:15.843Z,14.29
2022-07-28T23:53:42.695Z,14.28
2022-07-28T23:56:09.657Z,14.26
2022-07-28T23:58:36.233Z,14.23
